Time;durP1;ratioP1;P1;durP2;ratioP2;P2;SDS_P1;SDS_P2;PMS_P1;PMS_P2;Temp;Humidity;BMP_temperature;BMP_pressure;BME280_temperature;BME280_humidity;BME280_pressure;Samples;Min_cycle;Max_cycle;Signal;HPM_P1;HPM_P2
2022/05/25 00:00:25;;;;;;;6.07;4.73;;;11.80;1.00;;;;;;5072925;28;20266;-84
2022/05/25 00:02:52;;;;;;;7.60;5.13;;;11.80;1.00;;;;;;5072374;28;20241;-84
2022/05/25 00:05:20;;;;;;;6.80;5.50;;;11.80;1.00;;;;;;5072743;28;20106;-85
2022/05/25 00:07:48;;;;;;;7.40;5.00;;;11.70;1.00;;;;;;5072749;28;20246;-87
2022/05/25 00:10:15;;;;;;;7.20;5.20;;;11.70;1.00;;;;;;5072676;28;20197;-84
2022/05/25 00:12:42;;;;;;;8.07;5.03;;;11.70;1.00;;;;;;5072619;28;20201;-84
2022/05/25 00:15:12;;;;;;;5.87;4.73;;;11.70;1.00;;;;;;5072252;28;20565;-84
2022/05/25 00:17:39;;;;;;;6.87;4.87;;;11.60;1.00;;;;;;5072299;28;20852;-84
2022/05/25 00:20:08;;;;;;;6.97;5.10;;;11.60;1.00;;;;;;5072377;28;20200;-84
2022/05/25 00:22:44;;;;;;;7.07;5.00;;;11.60;1.00;;;;;;5072500;28;20250;-84
2022/05/25 00:25:14;;;;;;;6.50;5.10;;;11.60;1.00;;;;;;5072300;28;20180;-84
2022/05/25 00:27:41;;;;;;;7.63;5.00;;;11.60;1.00;;;;;;5072373;28;20672;-84
2022/05/25 00:30:11;;;;;;;6.37;4.70;;;11.60;1.00;;;;;;5072388;28;20253;-84
2022/05/25 00:32:40;;;;;;;7.57;4.63;;;11.60;1.00;;;;;;5072233;28;20196;-86
2022/05/25 00:35:08;;;;;;;7.27;5.30;;;11.60;1.00;;;;;;5072268;28;20301;-85
2022/05/25 00:37:35;;;;;;;9.63;5.13;;;11.60;1.00;;;;;;5072671;28;20200;-84
2022/05/25 00:40:03;;;;;;;8.60;5.80;;;11.60;1.00;;;;;;5072089;28;20192;-86
2022/05/25 00:42:30;;;;;;;8.80;5.43;;;11.60;1.00;;;;;;5072310;28;20246;-84
2022/05/25 00:44:57;;;;;;;8.17;6.07;;;11.50;1.00;;;;;;5072375;28;20269;-86
2022/05/25 00:47:28;;;;;;;7.77;5.87;;;11.50;1.00;;;;;;5072157;28;20193;-85
2022/05/25 00:49:54;;;;;;;8.00;5.87;;;11.50;1.00;;;;;;5072301;28;20182;-84
2022/05/25 00:52:22;;;;;;;9.17;6.23;;;11.40;1.00;;;;;;5071953;28;20316;-84
2022/05/25 00:54:52;;;;;;;11.30;7.20;;;11.40;1.00;;;;;;5072104;28;20223;-86
2022/05/25 00:57:31;;;;;;;10.60;7.10;;;11.40;1.00;;;;;;5072130;28;20575;-84
2022/05/25 01:00:04;;;;;;;11.00;7.00;;;11.30;1.00;;;;;;5071805;28;20633;-86
2022/05/25 01:02:35;;;;;;;9.07;6.00;;;11.30;1.00;;;;;;5071823;28;20264;-86
2022/05/25 01:05:03;;;;;;;10.30;6.30;;;11.30;1.00;;;;;;5071939;28;20183;-86
2022/05/25 01:07:48;;;;;;;9.07;6.50;;;11.20;1.00;;;;;;5071722;28;20248;-86
2022/05/25 01:10:33;;;;;;;9.33;6.20;;;11.20;1.00;;;;;;5072110;28;20187;-85
2022/05/25 01:13:11;;;;;;;9.10;6.23;;;11.10;1.00;;;;;;5072005;28;20187;-85
2022/05/25 01:15:47;;;;;;;10.53;6.20;;;11.00;1.00;;;;;;5075749;28;20258;-86
2022/05/25 01:18:26;;;;;;;10.23;6.33;;;11.00;1.00;;;;;;5075661;28;20707;-85
2022/05/25 01:20:56;;;;;;;11.90;7.70;;;11.00;1.00;;;;;;5076013;28;20183;-84
2022/05/25 01:23:51;;;;;;;9.87;6.87;;;10.90;1.00;;;;;;5075519;28;20404;-84
2022/05/25 01:26:52;;;;;;;9.00;6.83;;;10.90;1.00;;;;;;5075902;28;20218;-86
2022/05/25 01:29:52;;;;;;;8.00;6.07;;;10.80;1.00;;;;;;5073599;28;20191;-84
2022/05/25 01:32:22;;;;;;;;;;;10.80;1.00;;;;;;5065145;28;20201;-84
2022/05/25 01:34:55;;;;;;;8.43;5.80;;;10.70;1.00;;;;;;5075583;28;20058;-84
2022/05/25 01:37:28;;;;;;;9.90;6.93;;;10.70;1.00;;;;;;5075545;28;20180;-85
2022/05/25 01:40:00;;;;;;;8.17;5.60;;;10.70;1.00;;;;;;5075636;28;20238;-84
2022/05/25 01:42:31;;;;;;;8.10;6.10;;;10.70;1.00;;;;;;5075230;28;20673;-84
2022/05/25 01:45:05;;;;;;;7.23;5.57;;;10.60;1.00;;;;;;5075551;28;20188;-85
2022/05/25 01:47:34;;;;;;;7.07;5.57;;;10.60;1.00;;;;;;5075286;28;20193;-85
2022/05/25 01:50:06;;;;;;;7.30;5.63;;;10.70;1.00;;;;;;5075128;28;20198;-84
2022/05/25 01:52:44;;;;;;;9.30;5.60;;;10.60;35.10;;;;;;5075313;28;20221;-85
2022/05/25 01:55:24;;;;;;;7.40;5.97;;;10.60;99.90;;;;;;5074904;28;20294;-85
2022/05/25 01:57:57;;;;;;;6.93;5.57;;;10.60;97.40;;;;;;5075258;28;20200;-85
2022/05/25 02:00:32;;;;;;;11.53;6.43;;;10.50;1.00;;;;;;5074823;28;20541;-84
2022/05/25 02:05:52;;;;;;;8.67;6.10;;;10.50;1.00;;;;;;5074777;28;20649;-84
2022/05/25 02:08:31;;;;;;;8.50;5.60;;;10.50;65.40;;;;;;5075098;28;20176;-85
2022/05/25 02:11:09;;;;;;;8.30;5.83;;;10.40;99.90;;;;;;5074686;28;20646;-85
2022/05/25 02:13:50;;;;;;;8.83;6.60;;;10.40;99.90;;;;;;5074963;28;20186;-84
2022/05/25 02:16:31;;;;;;;8.67;5.67;;;10.50;99.90;;;;;;5074859;28;20294;-85
2022/05/25 02:19:06;;;;;;;8.77;6.70;;;10.40;99.90;;;;;;5074641;28;20206;-86
2022/05/25 02:21:41;;;;;;;9.37;6.57;;;10.50;99.90;;;;;;5074741;28;20267;-86
2022/05/25 02:24:16;;;;;;;8.13;6.40;;;10.40;99.90;;;;;;5074488;28;20594;-85
2022/05/25 02:26:48;;;;;;;9.80;5.90;;;10.40;99.90;;;;;;5074522;28;20188;-86
2022/05/25 02:29:21;;;;;;;8.80;6.50;;;10.40;81.70;;;;;;5074758;28;20272;-84
2022/05/25 02:31:53;;;;;;;8.73;6.67;;;10.30;99.90;;;;;;5074644;28;20186;-85
2022/05/25 02:34:21;;;;;;;9.83;6.33;;;10.30;99.90;;;;;;5074335;28;20185;-84
2022/05/25 02:36:50;;;;;;;8.77;6.60;;;10.30;99.90;;;;;;5074218;28;20274;-84
2022/05/25 02:39:17;;;;;;;10.33;6.73;;;10.20;99.90;;;;;;5074532;28;20196;-84
2022/05/25 02:41:52;;;;;;;8.97;6.60;;;10.20;99.90;;;;;;5074057;28;20190;-85
2022/05/25 02:44:20;;;;;;;10.37;6.97;;;10.20;99.90;;;;;;5074442;28;20633;-84
2022/05/25 02:46:47;;;;;;;10.67;7.40;;;10.20;99.90;;;;;;5074102;28;20191;-84
2022/05/25 02:49:18;;;;;;;9.67;6.37;;;10.20;99.90;;;;;;5074355;28;20206;-85
2022/05/25 02:51:45;;;;;;;9.23;6.20;;;10.20;99.90;;;;;;5074026;28;20557;-86
2022/05/25 02:54:22;;;;;;;9.13;6.13;;;10.20;99.90;;;;;;5097121;28;20220;-88
2022/05/25 02:56:49;;;;;;;9.00;5.90;;;10.20;99.90;;;;;;5074231;28;20251;-84
2022/05/25 02:59:16;;;;;;;10.70;6.07;;;10.10;99.90;;;;;;5073777;28;20608;-84
2022/05/25 03:01:43;;;;;;;10.07;6.70;;;10.10;99.90;;;;;;5074008;28;20257;-84
2022/05/25 03:04:10;;;;;;;9.03;5.87;;;10.10;99.90;;;;;;5073894;28;20805;-85
2022/05/25 03:06:38;;;;;;;9.97;6.73;;;10.00;99.90;;;;;;5073790;28;20321;-84
2022/05/25 03:09:05;;;;;;;9.47;6.30;;;10.00;99.90;;;;;;5074100;28;20196;-85
2022/05/25 03:11:32;;;;;;;8.63;5.87;;;10.10;99.90;;;;;;5073907;28;20188;-85
2022/05/25 03:13:59;;;;;;;8.63;5.67;;;10.00;99.90;;;;;;5073697;28;20248;-85
2022/05/25 03:16:29;;;;;;;10.10;6.07;;;10.00;99.90;;;;;;5073674;28;20270;-85
2022/05/25 03:18:57;;;;;;;12.10;6.60;;;10.10;99.90;;;;;;5073739;28;20196;-85
2022/05/25 03:21:25;;;;;;;11.07;5.90;;;10.10;99.90;;;;;;5073475;28;20300;-84
2022/05/25 03:23:53;;;;;;;9.43;6.10;;;10.20;99.90;;;;;;5073633;28;20225;-84
2022/05/25 03:26:20;;;;;;;12.17;5.93;;;10.20;99.90;;;;;;5073502;28;20603;-84
2022/05/25 03:28:47;;;;;;;9.23;6.20;;;10.30;99.90;;;;;;5073383;28;20613;-84
2022/05/25 03:31:15;;;;;;;13.13;6.93;;;10.40;99.90;;;;;;5073719;28;20202;-84
2022/05/25 03:33:43;;;;;;;11.47;7.37;;;10.40;99.90;;;;;;5073810;28;20667;-84
2022/05/25 03:36:10;;;;;;;12.00;7.87;;;10.50;1.00;;;;;;5072852;28;20682;-84
2022/05/25 03:38:37;;;;;;;9.27;6.57;;;10.60;1.00;;;;;;5076943;28;20646;-83
2022/05/25 03:41:06;;;;;;;10.67;6.33;;;10.70;1.00;;;;;;5073209;28;20700;-84
2022/05/25 03:43:35;;;;;;;9.90;7.13;;;10.90;1.00;;;;;;5073524;28;20246;-84
2022/05/25 03:46:02;;;;;;;10.57;7.83;;;11.10;1.00;;;;;;5073052;28;20204;-83
2022/05/25 03:48:29;;;;;;;12.53;8.33;;;11.40;1.00;;;;;;5073108;28;20252;-86
2022/05/25 03:51:01;;;;;;;14.40;9.77;;;12.10;1.00;;;;;;5073468;28;20196;-88
2022/05/25 03:53:28;;;;;;;10.13;7.77;;;13.00;99.90;;;;;;5074600;28;20220;-84
2022/05/25 03:55:55;;;;;;;12.37;7.10;;;14.00;1.00;;;;;;5073323;28;20222;-86
2022/05/25 03:58:24;;;;;;;8.00;5.70;;;15.00;99.90;;;;;;5073319;28;20253;-83
2022/05/25 04:00:51;;;;;;;8.20;5.30;;;15.70;1.00;;;;;;5073196;28;20588;-85
2022/05/25 04:03:18;;;;;;;7.93;5.55;;;16.40;99.90;;;;;;5072752;28;20255;-85
2022/05/25 04:05:45;;;;;;;;;;;17.10;1.00;;;;;;5073678;28;20193;-90
2022/05/25 04:08:13;;;;;;;6.32;5.32;;;17.70;39.00;;;;;;5076130;28;20390;-86
2022/05/25 04:10:40;;;;;;;6.68;5.55;;;18.10;99.90;;;;;;5073196;28;20192;-84
2022/05/25 04:13:07;;;;;;;6.22;5.13;;;18.40;1.00;;;;;;5083751;28;20223;-84
2022/05/25 04:15:38;;;;;;;7.30;5.78;;;18.50;94.00;;;;;;5082794;28;20746;-85
2022/05/25 04:18:05;;;;;;;7.18;5.82;;;18.70;1.00;;;;;;5088263;28;20258;-85
2022/05/25 04:20:33;;;;;;;6.53;5.35;;;19.10;1.00;;;;;;5072869;28;20196;-83
2022/05/25 04:23:00;;;;;;;7.70;5.65;;;19.30;99.90;;;;;;5072485;28;20547;-83
2022/05/25 04:26:10;;;;;;;;;;;;;;;;;;;;;
2022/05/25 04:28:38;;;;;;;7.10;4.95;;;20.10;1.00;;;;;;5077141;28;20629;-87
2022/05/25 04:31:07;;;;;;;6.10;5.20;;;20.20;1.00;;;;;;5074760;28;20737;-87
2022/05/25 04:33:35;;;;;;;5.72;4.97;;;20.40;1.00;;;;;;5072478;28;20225;-83
2022/05/25 04:36:02;;;;;;;5.57;4.90;;;20.50;99.90;;;;;;5072273;28;20251;-84
2022/05/25 04:38:30;;;;;;;5.80;5.13;;;20.40;99.90;;;;;;5072610;28;20189;-85
2022/05/25 04:40:57;;;;;;;7.90;4.97;;;20.20;99.90;;;;;;5072545;28;20265;-83
2022/05/25 04:43:25;;;;;;;5.45;4.85;;;20.30;99.90;;;;;;5072352;28;20530;-86
2022/05/25 04:45:53;;;;;;;5.15;4.65;;;20.20;99.90;;;;;;5072622;28;20196;-84
2022/05/25 04:48:24;;;;;;;6.38;5.32;;;20.00;99.90;;;;;;5083015;28;20188;-87
2022/05/25 04:50:52;;;;;;;10.70;6.00;;;19.90;99.90;;;;;;5072555;28;20219;-87
2022/05/25 04:53:21;;;;;;;5.72;5.10;;;19.90;99.90;;;;;;5073518;28;20672;-84
2022/05/25 04:58:41;;;;;;;7.05;5.20;;;19.40;99.90;;;;;;5092850;28;20199;-87
2022/05/25 05:01:16;;;;;;;7.65;5.40;;;19.10;99.90;;;;;;5092640;28;20199;-88
2022/05/25 05:03:49;;;;;;;7.07;6.10;;;18.80;99.90;;;;;;5088666;28;20290;-84
2022/05/25 05:06:20;;;;;;;43.63;21.65;;;18.60;99.90;;;;;;5096094;28;20292;-87
2022/05/25 05:09:19;;;;;;;38.95;20.17;;;18.40;99.90;;;;;;5093472;28;20180;-86
2022/05/25 05:11:47;;;;;;;41.55;21.48;;;18.50;99.90;;;;;;5079515;28;20196;-87
2022/05/25 05:14:15;;;;;;;29.48;16.52;;;18.90;99.90;;;;;;5071801;28;20196;-84
2022/05/25 05:16:42;;;;;;;14.70;10.00;;;19.10;99.90;;;;;;5071836;28;20227;-87
2022/05/25 05:19:10;;;;;;;66.50;31.75;;;19.00;99.90;;;;;;5076372;28;20172;-86
2022/05/25 05:21:37;;;;;;;74.35;37.95;;;19.00;99.90;;;;;;5072610;28;20787;-87
2022/05/25 05:24:05;;;;;;;101.90;52.13;;;19.50;99.90;;;;;;5074620;28;20644;-90
2022/05/25 05:26:32;;;;;;;43.30;24.45;;;20.70;1.00;;;;;;5085942;28;20496;-92
2022/05/25 05:28:59;;;;;;;15.38;9.75;;;21.50;99.90;;;;;;5078786;28;20196;-89
2022/05/25 05:31:26;;;;;;;16.85;11.30;;;21.70;99.90;;;;;;5072332;28;20262;-89
2022/05/25 05:33:53;;;;;;;24.67;14.25;;;21.50;27.50;;;;;;5072205;28;20725;-89
2022/05/25 05:36:30;;;;;;;35.55;23.88;;;21.40;16.00;;;;;;5087544;28;20224;-92
2022/05/25 05:39:10;;;;;;;43.83;27.95;;;21.50;22.80;;;;;;5085742;28;20192;-91
2022/05/25 05:41:39;;;;;;;;;;;21.90;48.90;;;;;;5073352;28;20587;-89
2022/05/25 05:44:09;;;;;;;15.00;11.25;;;22.60;87.00;;;;;;5083131;28;20197;-90
2022/05/25 05:46:41;;;;;;;;;;;23.30;1.00;;;;;;5082114;28;20581;-94
2022/05/25 05:49:08;;;;;;;12.63;9.55;;;23.50;1.00;;;;;;5079992;28;20388;-90
2022/05/25 05:51:38;;;;;;;18.73;14.05;;;23.60;1.00;;;;;;5081182;28;20172;-91
2022/05/25 05:54:05;;;;;;;;;;;23.90;1.00;;;;;;5072418;28;20232;-90
2022/05/25 05:56:33;;;;;;;6.72;5.40;;;24.40;1.00;;;;;;5073438;28;20110;-87
2022/05/25 05:59:00;;;;;;;5.10;4.60;;;24.90;1.00;;;;;;5071972;28;20177;-87
2022/05/25 06:01:28;;;;;;;5.63;4.80;;;25.30;1.00;;;;;;5084994;28;20192;-89
2022/05/25 06:03:55;;;;;;;5.75;5.15;;;25.50;1.00;;;;;;5075445;28;20192;-87
2022/05/25 06:06:23;;;;;;;8.70;5.40;;;25.60;1.00;;;;;;5075460;28;20242;-88
2022/05/25 06:08:51;;;;;;;;;;;25.60;1.00;;;;;;5075937;28;19959;-88
2022/05/25 06:11:19;;;;;;;;;;;25.40;1.00;;;;;;5076869;28;20403;-90
2022/05/25 06:13:46;;;;;;;;;;;25.20;1.00;;;;;;5075760;28;19924;-89
2022/05/25 06:21:41;;;;;;;6.65;5.47;;;25.20;1.00;;;;;;5075126;28;20738;-89
2022/05/25 06:24:10;;;;;;;6.47;5.32;;;25.60;1.00;;;;;;5075194;28;20193;-90
2022/05/25 06:26:37;;;;;;;5.40;4.90;;;26.00;1.00;;;;;;5074921;28;20102;-90
2022/05/25 06:29:04;;;;;;;;;;;26.60;1.00;;;;;;5075402;28;19924;-91
2022/05/25 06:31:31;;;;;;;;;;;27.40;1.00;;;;;;5075025;28;20389;-91
2022/05/25 06:33:58;;;;;;;;;;;27.80;1.00;;;;;;5075464;28;19921;-90
2022/05/25 06:36:27;;;;;;;11.50;4.75;;;28.30;1.00;;;;;;5075026;28;20055;-90
2022/05/25 06:38:55;;;;;;;9.00;5.18;;;28.60;1.00;;;;;;5074622;28;20242;-90
2022/05/25 06:41:24;;;;;;;7.32;6.55;;;28.50;1.00;;;;;;5075204;28;20189;-91
2022/05/25 06:43:51;;;;;;;7.90;5.00;;;28.50;1.00;;;;;;5074762;28;20598;-88
2022/05/25 06:46:20;;;;;;;4.72;4.18;;;28.90;1.00;;;;;;5074564;28;20199;-89
2022/05/25 06:48:47;;;;;;;8.20;3.72;;;29.20;1.00;;;;;;5074647;28;20195;-89
2022/05/25 06:51:25;;;;;;;5.72;5.13;;;29.60;1.00;;;;;;5090472;28;20193;-92
2022/05/25 06:53:53;;;;;;;6.68;5.32;;;29.60;1.00;;;;;;5074745;28;20232;-89
2022/05/25 06:56:22;;;;;;;6.22;4.55;;;29.50;1.00;;;;;;5074666;28;20266;-89
2022/05/25 06:58:50;;;;;;;31.85;24.20;;;29.60;1.00;;;;;;5074509;28;20525;-89
2022/05/25 07:01:17;;;;;;;;;;;29.50;1.00;;;;;;5074929;28;19920;-89
2022/05/25 07:03:44;;;;;;;;;;;29.10;1.00;;;;;;5074634;28;19947;-89
2022/05/25 07:06:13;;;;;;;4.40;4.00;;;28.80;1.00;;;;;;5077403;28;20041;-91
2022/05/25 07:08:40;;;;;;;5.72;3.67;;;28.30;1.00;;;;;;5074406;28;20192;-90
2022/05/25 07:11:07;;;;;;;5.32;3.90;;;28.00;1.00;;;;;;5074241;28;20250;-89
2022/05/25 07:13:34;;;;;;;6.90;4.07;;;27.60;1.00;;;;;;5074229;28;20530;-90
2022/05/25 07:16:04;;;;;;;5.93;4.25;;;27.60;1.00;;;;;;5073871;28;20196;-89
2022/05/25 07:18:31;;;;;;;5.30;3.67;;;27.90;1.00;;;;;;5076698;28;20234;-87
2022/05/25 07:21:00;;;;;;;5.90;4.05;;;28.60;1.00;;;;;;5073705;28;20226;-87
2022/05/25 07:23:27;;;;;;;4.13;3.50;;;29.10;1.00;;;;;;5073977;28;20192;-88
2022/05/25 07:25:54;;;;;;;4.75;3.72;;;29.70;1.00;;;;;;5073817;28;20660;-89
2022/05/25 07:28:21;;;;;;;10.73;3.85;;;30.40;1.00;;;;;;5073712;28;20599;-88
2022/05/25 07:30:50;;;;;;;3.80;3.50;;;30.80;1.00;;;;;;5073789;28;20181;-88
2022/05/25 07:33:18;;;;;;;5.85;3.67;;;31.20;1.00;;;;;;5073744;28;20254;-88
2022/05/25 07:36:09;;;;;;;11.35;4.30;;;31.70;1.00;;;;;;5085611;28;20089;-90
2022/05/25 07:42:10;;;;;;;5.15;3.55;;;33.00;1.00;;;;;;5099212;28;20183;-95
2022/05/25 07:48:22;;;;;;;4.68;3.60;;;33.10;1.00;;;;;;5097776;28;20195;-93
2022/05/25 07:51:00;;;;;;;4.50;3.28;;;33.20;1.00;;;;;;5098556;28;20210;-93
2022/05/25 07:56:12;;;;;;;3.67;3.22;;;33.20;1.00;;;;;;5073095;28;20230;-89
2022/05/25 07:58:39;;;;;;;4.47;3.50;;;33.40;1.00;;;;;;5072994;28;20525;-89
2022/05/25 08:01:11;;;;;;;3.40;3.08;;;33.50;1.00;;;;;;5073002;28;20616;-90
2022/05/25 08:06:24;;;;;;;4.28;3.08;;;33.10;1.00;;;;;;5073521;28;20249;-87
2022/05/25 08:08:52;;;;;;;5.20;3.30;;;33.30;1.00;;;;;;5072820;28;20196;-89
2022/05/25 08:11:21;;;;;;;3.75;3.42;;;33.50;1.00;;;;;;5074991;28;20223;-89
2022/05/25 08:13:51;;;;;;;3.63;3.33;;;33.30;1.00;;;;;;5072725;28;20200;-89
2022/05/25 08:16:43;;;;;;;3.97;3.58;;;33.50;1.00;;;;;;5087991;28;20214;-92
2022/05/25 08:19:31;;;;;;;5.47;3.80;;;33.40;1.00;;;;;;5098036;28;20621;-94
2022/05/25 08:22:00;;;;;;;3.85;3.35;;;33.40;1.00;;;;;;5086839;28;20192;-90
2022/05/25 08:24:29;;;;;;;8.77;6.22;;;33.90;1.00;;;;;;5072744;28;20195;-89
2022/05/25 08:26:56;;;;;;;17.10;10.82;;;34.30;1.00;;;;;;5073071;28;20196;-90
2022/05/25 08:29:25;;;;;;;10.75;7.28;;;34.30;1.00;;;;;;5072846;28;20199;-89
2022/05/25 08:31:55;;;;;;;6.10;4.45;;;34.20;1.00;;;;;;5072402;28;20192;-89
2022/05/25 08:34:22;;;;;;;6.25;4.80;;;34.10;1.00;;;;;;5072489;28;20212;-89
2022/05/25 08:36:49;;;;;;;4.57;3.10;;;33.70;1.00;;;;;;5072675;28;20783;-89
2022/05/25 08:39:17;;;;;;;3.88;3.45;;;33.00;1.00;;;;;;5072737;28;20188;-89
2022/05/25 08:41:45;;;;;;;3.85;3.40;;;32.40;1.00;;;;;;5072473;28;20205;-90
2022/05/25 08:44:14;;;;;;;4.18;3.17;;;31.90;1.00;;;;;;5072642;28;20317;-88
2022/05/25 08:49:59;;;;;;;;;;;;;;;;;;;;;
2022/05/25 08:52:48;;;;;;;3.13;2.45;;;31.70;1.00;;;;;;5097669;28;20168;-93
2022/05/25 08:55:37;;;;;;;3.80;2.60;;;31.10;1.00;;;;;;5085171;28;20192;-89
2022/05/25 08:58:04;;;;;;;3.58;2.25;;;30.50;1.00;;;;;;5072520;28;20745;-88
2022/05/25 09:00:31;;;;;;;3.53;2.40;;;30.00;1.00;;;;;;5080744;28;20188;-90
2022/05/25 09:03:07;;;;;;;2.72;2.40;;;29.60;1.00;;;;;;5072896;28;20698;-90
2022/05/25 09:05:38;;;;;;;3.63;3.33;;;29.50;1.00;;;;;;5072302;28;20230;-90
2022/05/25 09:08:16;;;;;;;4.15;3.40;;;29.40;1.00;;;;;;5078323;28;20590;-90
2022/05/25 09:10:49;;;;;;;4.70;3.05;;;29.00;1.00;;;;;;5072591;28;20176;-90
2022/05/25 09:13:23;;;;;;;4.30;2.90;;;28.50;1.00;;;;;;5072721;28;20180;-90
2022/05/25 09:18:59;;;;;;;3.20;2.20;;;27.90;1.00;;;;;;5081523;28;20194;-90
2022/05/25 09:21:46;;;;;;;2.92;2.35;;;27.70;1.00;;;;;;5097768;28;20180;-91
2022/05/25 09:24:45;;;;;;;7.88;3.40;;;27.30;1.00;;;;;;5097769;28;20206;-93
2022/05/25 09:27:40;;;;;;;5.00;3.20;;;26.90;1.00;;;;;;5097743;28;20219;-93
2022/05/25 09:30:47;;;;;;;3.13;2.60;;;26.90;1.00;;;;;;5097514;28;20301;-92
2022/05/25 09:34:23;;;;;;;;;;;;;;;;;;;;;
2022/05/25 09:37:05;;;;;;;;;;;26.30;1.00;;;;;;5101607;28;20124;-90
2022/05/25 09:39:36;;;;;;;4.40;2.75;;;25.90;1.00;;;;;;5079085;28;20724;-89
2022/05/25 09:42:07;;;;;;;3.83;3.03;;;25.70;1.00;;;;;;5075901;28;20192;-90
2022/05/25 09:44:35;;;;;;;5.05;3.40;;;25.60;1.00;;;;;;5075728;28;20216;-89
2022/05/25 09:47:06;;;;;;;3.30;2.97;;;25.50;1.00;;;;;;5085905;28;20200;-89
2022/05/25 09:49:39;;;;;;;3.58;2.83;;;25.40;1.00;;;;;;5076002;28;20694;-88
2022/05/25 09:52:16;;;;;;;3.65;2.60;;;25.30;1.00;;;;;;5075880;28;20192;-89
2022/05/25 09:54:46;;;;;;;9.60;3.60;;;25.20;1.00;;;;;;5076063;28;20315;-89
2022/05/25 09:57:26;;;;;;;5.00;4.40;;;25.10;1.00;;;;;;5076051;28;20200;-90
2022/05/25 10:00:00;;;;;;;;;;;25.10;1.00;;;;;;5087455;28;20066;-90
2022/05/25 10:02:30;;;;;;;3.15;2.85;;;25.00;1.00;;;;;;5089130;28;20229;-89
2022/05/25 10:05:13;;;;;;;3.78;3.10;;;24.80;1.00;;;;;;5086895;28;20297;-89
2022/05/25 10:07:48;;;;;;;4.30;3.50;;;24.60;1.00;;;;;;5075709;28;20193;-89
2022/05/25 10:10:15;;;;;;;3.40;2.60;;;24.50;1.00;;;;;;5075312;28;20545;-90
2022/05/25 10:13:04;;;;;;;4.35;3.42;;;24.40;1.00;;;;;;5085230;28;20210;-92
2022/05/25 10:15:36;;;;;;;5.88;5.32;;;24.40;1.00;;;;;;5075776;28;20192;-89
2022/05/25 10:18:05;;;;;;;4.88;2.60;;;24.50;1.00;;;;;;5075809;28;20295;-87
2022/05/25 10:20:35;;;;;;;6.45;2.50;;;24.40;1.00;;;;;;5075645;28;20196;-90
2022/05/25 10:23:09;;;;;;;3.83;2.92;;;24.30;1.00;;;;;;5075561;28;20242;-88
2022/05/25 10:25:55;;;;;;;5.13;3.67;;;24.00;1.00;;;;;;5081052;28;20226;-92
2022/05/25 10:28:52;;;;;;;3.40;2.38;;;23.80;1.00;;;;;;5100431;28;20168;-91
2022/05/25 10:37:13;;;;;;;6.07;2.80;;;23.00;1.00;;;;;;5075437;28;20196;-88
2022/05/25 10:39:42;;;;;;;5.07;2.75;;;22.70;1.00;;;;;;5090062;28;20184;-87
2022/05/25 10:42:22;;;;;;;3.20;2.88;;;22.60;1.00;;;;;;5074627;28;20245;-87
2022/05/25 10:45:01;;;;;;;2.83;2.63;;;22.40;1.00;;;;;;5075311;28;20196;-86
2022/05/25 10:47:57;;;;;;;4.57;2.60;;;22.40;1.00;;;;;;5076601;28;20300;-90
2022/05/25 10:50:45;;;;;;;3.75;2.80;;;22.30;1.00;;;;;;5093796;28;20176;-93
2022/05/25 10:53:29;;;;;;;2.83;2.53;;;22.30;1.00;;;;;;5079656;28;20643;-90
2022/05/25 10:56:32;;;;;;;3.53;2.70;;;22.20;1.00;;;;;;5093085;28;20188;-91
2022/05/25 11:05:31;;;;;;;3.85;2.55;;;22.10;1.00;;;;;;5096397;28;20195;-93
2022/05/25 11:08:13;;;;;;;3.42;3.05;;;22.10;1.00;;;;;;5095133;28;20206;-89
2022/05/25 11:11:03;;;;;;;2.90;2.47;;;22.10;1.00;;;;;;5099410;28;20219;-96
2022/05/25 11:14:06;;;;;;;3.45;2.65;;;22.20;1.00;;;;;;5097048;28;20168;-92
2022/05/25 11:20:20;;;;;;;3.33;2.53;;;22.30;1.00;;;;;;5091744;28;20192;-91
2022/05/25 11:23:13;;;;;;;2.78;2.42;;;22.40;1.00;;;;;;5079327;28;20192;-91
2022/05/25 11:26:13;;;;;;;4.57;3.38;;;22.60;1.00;;;;;;5096334;28;20202;-92
2022/05/25 11:29:03;;;;;;;5.25;2.55;;;22.70;1.00;;;;;;5098758;28;20180;-92
2022/05/25 11:32:00;;;;;;;3.75;2.15;;;22.80;1.00;;;;;;5098847;28;20172;-92
2022/05/25 11:35:12;;;;;;;2.92;2.20;;;23.00;1.00;;;;;;5096927;28;20191;-91
2022/05/25 11:38:05;;;;;;;3.25;2.22;;;23.10;1.00;;;;;;5098215;28;20231;-91
2022/05/25 11:40:48;;;;;;;2.90;2.03;;;23.30;1.00;;;;;;5098449;28;20211;-95
2022/05/25 11:43:47;;;;;;;6.15;2.47;;;23.50;1.00;;;;;;5098498;28;20230;-94
2022/05/25 11:46:56;;;;;;;4.00;2.85;;;23.90;1.00;;;;;;5094739;28;20207;-91
2022/05/25 11:49:47;;;;;;;2.42;2.08;;;24.30;1.00;;;;;;5096304;28;20208;-90
2022/05/25 11:52:32;;;;;;;4.72;2.30;;;24.50;1.00;;;;;;5073242;28;20550;-91
2022/05/25 11:55:11;;;;;;;3.08;2.22;;;24.70;1.00;;;;;;5073140;28;20226;-90
2022/05/25 11:57:47;;;;;;;13.55;8.95;;;24.60;1.00;;;;;;5072677;28;20212;-89
2022/05/25 12:00:27;;;;;;;3.90;2.30;;;24.40;1.00;;;;;;5073174;28;20598;-91
2022/05/25 12:03:19;;;;;;;2.50;2.30;;;24.20;1.00;;;;;;5073577;28;20525;-90
2022/05/25 12:05:58;;;;;;;2.20;2.00;;;24.20;1.00;;;;;;5075485;28;20690;-89
2022/05/25 12:09:07;;;;;;;2.60;1.90;;;24.30;1.00;;;;;;5091058;28;20229;-92
2022/05/25 12:11:59;;;;;;;2.83;2.05;;;24.60;1.00;;;;;;5098802;28;20241;-92
2022/05/25 12:15:12;;;;;;;2.55;2.05;;;24.90;1.00;;;;;;5098895;28;20268;-91
2022/05/25 12:18:28;;;;;;;3.10;1.90;;;24.90;1.00;;;;;;5088817;28;20234;-90
2022/05/25 12:21:07;;;;;;;4.07;3.67;;;24.90;1.00;;;;;;5098766;28;20200;-93
2022/05/25 12:23:56;;;;;;;1.90;1.70;;;25.10;1.00;;;;;;5098812;28;20177;-91
2022/05/25 12:26:27;;;;;;;3.47;1.83;;;25.30;1.00;;;;;;5088061;28;20188;-87
2022/05/25 12:29:04;;;;;;;2.67;1.70;;;25.30;1.00;;;;;;5074906;28;20550;-89
2022/05/25 12:31:33;;;;;;;2.88;1.75;;;25.20;1.00;;;;;;5072849;28;20257;-84
2022/05/25 12:34:01;;;;;;;2.17;1.73;;;25.10;1.00;;;;;;5072750;28;20566;-84
2022/05/25 12:36:29;;;;;;;1.92;1.40;;;25.10;1.00;;;;;;5072602;28;20245;-86
2022/05/25 12:38:56;;;;;;;2.78;1.48;;;25.00;1.00;;;;;;5072633;28;20219;-85
2022/05/25 12:41:31;;;;;;;2.60;1.65;;;25.00;1.00;;;;;;5072912;28;20251;-87
2022/05/25 12:44:00;;;;;;;2.80;1.60;;;25.10;1.00;;;;;;5072661;28;20184;-88
2022/05/25 12:49:59;;;;;;;1.77;1.60;;;25.20;1.00;;;;;;5072309;28;20310;-85
2022/05/25 12:52:46;;;;;;;2.47;1.70;;;25.20;1.00;;;;;;5088029;28;20192;-88
2022/05/25 12:58:12;;;;;;;1.90;1.50;;;24.70;1.00;;;;;;5045760;28;20209;-85
2022/05/25 13:01:34;;;;;;;;;;;;;;;;;;;;;
2022/05/25 13:05:06;;;;;;;2.53;1.50;;;24.60;1.00;;;;;;5047707;28;20233;-89
2022/05/25 13:07:46;;;;;;;2.92;1.30;;;24.40;1.00;;;;;;5028983;28;20205;-85
2022/05/25 13:10:21;;;;;;;3.05;1.33;;;24.20;1.00;;;;;;5037703;28;20213;-87
2022/05/25 13:12:51;;;;;;;1.58;1.25;;;24.10;1.00;;;;;;5036726;28;20213;-89
2022/05/25 13:15:44;;;;;;;3.45;2.10;;;23.90;1.00;;;;;;5036262;28;20243;-87
2022/05/25 13:18:44;;;;;;;4.72;1.38;;;23.80;1.00;;;;;;5031514;28;20681;-87
2022/05/25 13:21:32;;;;;;;1.40;1.30;;;23.60;1.00;;;;;;5041152;28;20182;-87
2022/05/25 13:24:24;;;;;;;1.42;1.30;;;23.50;1.00;;;;;;5035947;28;20704;-87
2022/05/25 13:27:28;;;;;;;1.55;1.45;;;23.50;1.00;;;;;;5042944;28;20217;-89
2022/05/25 13:30:08;;;;;;;7.25;4.20;;;23.40;1.00;;;;;;5036450;28;20426;-88
2022/05/25 13:32:57;;;;;;;4.70;2.85;;;23.30;1.00;;;;;;5045384;28;20233;-88
2022/05/25 13:35:41;;;;;;;3.83;2.85;;;23.20;1.00;;;;;;5054689;28;20182;-86
2022/05/25 13:38:23;;;;;;;2.72;1.77;;;23.20;1.00;;;;;;5045044;28;20225;-88
2022/05/25 13:40:56;;;;;;;4.60;2.75;;;23.30;1.00;;;;;;5035630;28;20178;-87
2022/05/25 13:43:37;;;;;;;2.70;2.00;;;23.50;1.00;;;;;;5035569;28;20232;-87
2022/05/25 13:46:09;;;;;;;3.17;1.83;;;23.70;1.00;;;;;;5035637;28;20236;-85
2022/05/25 13:48:36;;;;;;;2.75;1.80;;;23.80;1.00;;;;;;5035314;28;20189;-87
2022/05/25 13:51:04;;;;;;;2.95;1.60;;;24.00;1.00;;;;;;5035449;28;20221;-87
2022/05/25 13:53:34;;;;;;;2.08;1.52;;;24.10;1.00;;;;;;5035339;28;20263;-85
2022/05/25 13:56:06;;;;;;;1.50;1.40;;;23.90;1.00;;;;;;5035359;28;20311;-88
2022/05/25 13:58:36;;;;;;;2.30;1.42;;;23.70;1.00;;;;;;5035491;28;20225;-88
2022/05/25 14:01:07;;;;;;;2.92;1.90;;;23.50;1.00;;;;;;5035664;28;20193;-87
2022/05/25 14:03:35;;;;;;;3.70;1.42;;;23.50;1.00;;;;;;5035572;28;20213;-86
2022/05/25 14:06:06;;;;;;;2.22;1.70;;;23.40;1.00;;;;;;5037000;28;20535;-86
2022/05/25 14:11:34;;;;;;;2.75;1.50;;;23.40;1.00;;;;;;5038894;28;20177;-87
2022/05/25 14:14:01;;;;;;;34.90;3.53;;;23.40;1.00;;;;;;5034949;28;20182;-86
2022/05/25 14:16:30;;;;;;;2.25;1.48;;;23.30;1.00;;;;;;5034643;28;20636;-85
2022/05/25 14:18:59;;;;;;;2.40;1.92;;;23.20;1.00;;;;;;5038447;28;20267;-85
2022/05/25 14:21:31;;;;;;;2.85;1.80;;;23.10;1.00;;;;;;5045312;28;20205;-87
2022/05/25 14:24:00;;;;;;;3.00;2.00;;;23.00;1.00;;;;;;5038854;28;20236;-85
2022/05/25 14:26:32;;;;;;;2.60;1.50;;;22.90;1.00;;;;;;5037795;28;20235;-87
2022/05/25 14:29:04;;;;;;;2.65;1.40;;;22.80;1.00;;;;;;5034648;28;20276;-87
2022/05/25 14:31:33;;;;;;;2.53;1.83;;;22.70;1.00;;;;;;5044507;28;20243;-87
2022/05/25 14:34:05;;;;;;;3.35;2.10;;;22.50;1.00;;;;;;5034217;28;20563;-86